Time;durP1;ratioP1;P1;durP2;ratioP2;P2;SDS_P1;SDS_P2;PMS_P1;PMS_P2;Temp;Humidity;BMP_temperature;BMP_pressure;BME280_temperature;BME280_humidity;BME280_pressure;Samples;Min_cycle;Max_cycle;Signal;HPM_P1;HPM_P2
2023/07/15 00:00:16;;;;;;;4.65;2.60;;;;;;;22.43;52.33;100374.97;5063955;28;20115;-58
2023/07/15 00:02:43;;;;;;;3.92;2.38;;;;;;;22.43;52.28;100370.38;5068519;28;20049;-58
2023/07/15 00:05:28;;;;;;;3.58;2.70;;;;;;;22.44;52.82;100365.78;5056735;28;20036;-58
2023/07/15 00:07:53;;;;;;;3.55;2.20;;;;;;;22.43;52.62;100370.38;5060546;28;20060;-58
2023/07/15 00:10:21;;;;;;;4.57;2.53;;;;;;;22.43;52.35;100372.25;5065580;28;20079;-58
2023/07/15 00:12:46;;;;;;;5.05;2.63;;;;;;;22.44;51.96;100373.91;5060130;28;20033;-58
2023/07/15 00:15:13;;;;;;;5.10;2.50;;;;;;;22.43;52.11;100367.66;5063189;28;20049;-58
2023/07/15 00:17:39;;;;;;;5.22;2.60;;;;;;;22.43;51.95;100364.09;5065663;28;20033;-58
2023/07/15 00:20:07;;;;;;;3.88;2.72;;;;;;;22.43;51.79;100366.81;5064649;28;20029;-58
2023/07/15 00:22:34;;;;;;;4.32;2.60;;;;;;;22.44;52.28;100371.19;5067248;28;20107;-58
2023/07/15 00:24:59;;;;;;;5.05;2.28;;;;;;;22.43;52.19;100374.97;5064985;28;20033;-58
2023/07/15 00:27:25;;;;;;;3.10;2.42;;;;;;;22.43;51.62;100369.53;5055876;28;20379;-58
2023/07/15 00:29:51;;;;;;;7.25;2.92;;;;;;;22.43;52.17;100364.09;5061265;28;20107;-58
2023/07/15 00:32:17;;;;;;;4.05;2.55;;;;;;;22.43;51.64;100364.09;5059822;28;20106;-58
2023/07/15 00:34:42;;;;;;;3.17;2.13;;;;;;;22.42;51.63;100370.56;5062822;28;20142;-58
2023/07/15 00:37:07;;;;;;;3.00;2.05;;;;;;;22.42;51.75;100368.66;5051838;28;20123;-58
2023/07/15 00:39:33;;;;;;;2.97;2.60;;;;;;;22.43;51.73;100369.53;5065851;28;20080;-58
2023/07/15 00:42:04;;;;;;;2.92;2.10;;;;;;;22.42;52.00;100359.69;5059535;28;20028;-58
2023/07/15 00:44:29;;;;;;;3.20;2.40;;;;;;;22.43;51.77;100369.53;5045931;28;20033;-58
2023/07/15 00:47:21;;;;;;;3.13;2.40;;;;;;;22.44;51.83;100373.91;5061396;28;20085;-58
2023/07/15 00:49:48;;;;;;;4.13;2.22;;;;;;;22.43;51.66;100369.53;5058013;28;20028;-58
2023/07/15 00:52:16;;;;;;;3.05;2.35;;;;;;;22.42;51.81;100373.25;5061990;28;20036;-58
2023/07/15 00:54:48;;;;;;;2.97;2.30;;;;;;;22.43;51.55;100374.97;5059269;28;20382;-58
2023/07/15 00:57:15;;;;;;;3.25;2.53;;;;;;;22.41;51.53;100377.84;5056931;28;20474;-58
2023/07/15 00:59:43;;;;;;;4.13;2.40;;;;;;;22.43;51.90;100380.38;5058725;28;20082;-58
2023/07/15 01:02:11;;;;;;;3.25;2.30;;;;;;;22.42;51.46;100384.13;5064224;28;20630;-58
2023/07/15 01:04:37;;;;;;;4.53;2.10;;;;;;;22.42;51.77;100392.25;5059482;28;20031;-58
2023/07/15 01:07:06;;;;;;;2.78;2.50;;;;;;;22.43;51.77;100377.69;5067160;28;20036;-58
2023/07/15 01:09:32;;;;;;;2.17;1.98;;;;;;;22.43;51.62;100386.66;5064376;28;20036;-58
2023/07/15 01:11:57;;;;;;;3.10;2.22;;;;;;;22.42;51.35;100384.13;5067407;28;20025;-58
2023/07/15 01:14:23;;;;;;;4.00;2.20;;;;;;;22.43;51.60;100388.53;5056152;28;20047;-58
2023/07/15 01:16:49;;;;;;;2.60;2.10;;;;;;;22.42;51.53;100384.13;5059145;28;20029;-58
2023/07/15 01:19:18;;;;;;;3.50;2.53;;;;;;;22.42;51.43;100384.13;5061769;28;20056;-58
2023/07/15 01:21:50;;;;;;;3.53;2.13;;;;;;;22.42;51.42;100394.97;5059922;28;20071;-58
2023/07/15 01:24:17;;;;;;;2.17;1.98;;;;;;;22.42;51.79;100389.53;5063472;28;20035;-58
2023/07/15 01:26:42;;;;;;;5.40;2.33;;;;;;;22.42;51.17;100386.81;5063055;28;20032;-58
2023/07/15 01:29:07;;;;;;;7.20;2.38;;;;;;;22.41;51.79;100386.00;5063671;28;20032;-58
2023/07/15 01:31:34;;;;;;;2.75;2.17;;;;;;;22.41;51.61;100387.88;5055980;28;20041;-58
2023/07/15 01:33:59;;;;;;;3.10;2.17;;;;;;;22.41;51.48;100393.28;5058509;28;20088;-58
2023/07/15 01:36:26;;;;;;;4.05;2.38;;;;;;;22.41;51.32;100390.59;5061990;28;20144;-58
2023/07/15 01:38:52;;;;;;;3.42;2.38;;;;;;;22.40;51.92;100391.59;5056137;28;20032;-58
2023/07/15 01:41:17;;;;;;;2.65;1.90;;;;;;;22.40;51.24;100386.16;5058946;28;20052;-58
2023/07/15 01:43:43;;;;;;;3.70;2.35;;;;;;;22.41;51.90;100387.88;5063586;28;20041;-58
2023/07/15 01:46:09;;;;;;;3.25;1.98;;;;;;;22.40;51.43;100391.59;5061903;28;20057;-58
2023/07/15 01:48:35;;;;;;;6.05;2.15;;;;;;;22.39;51.85;100396.19;5060837;28;20415;-58
2023/07/15 01:51:01;;;;;;;2.33;2.13;;;;;;;22.39;51.66;100404.31;5060742;28;20037;-58
2023/07/15 01:53:26;;;;;;;3.00;2.28;;;;;;;22.39;51.60;100395.31;5055269;28;20023;-58
2023/07/15 01:55:51;;;;;;;4.32;2.42;;;;;;;22.39;51.63;100400.75;5061450;28;20029;-58
2023/07/15 01:58:17;;;;;;;3.65;1.92;;;;;;;22.38;51.34;100390.94;5060985;28;20052;-58
2023/07/15 02:00:42;;;;;;;3.58;1.98;;;;;;;22.38;51.22;100393.66;5062940;28;20040;-58
2023/07/15 02:03:08;;;;;;;4.53;1.98;;;;;;;22.37;51.63;100397.38;5070844;28;20033;-58
2023/07/15 02:05:34;;;;;;;2.53;1.80;;;;;;;22.38;51.82;100401.78;5064296;28;20606;-58
2023/07/15 02:07:59;;;;;;;5.07;2.47;;;;;;;22.37;51.69;100400.97;5050578;28;20108;-58
2023/07/15 02:10:25;;;;;;;5.50;2.08;;;;;;;22.37;51.43;100402.81;5055281;28;20025;-58
2023/07/15 02:12:50;;;;;;;3.22;2.20;;;;;;;22.37;51.74;100410.94;5062657;28;20538;-58
2023/07/15 02:15:16;;;;;;;2.42;2.20;;;;;;;22.36;51.76;100398.44;5066862;28;20159;-58
2023/07/15 02:17:43;;;;;;;2.58;1.80;;;;;;;22.35;51.47;100397.59;5059454;28;20031;-58
2023/07/15 02:20:09;;;;;;;3.05;1.85;;;;;;;22.35;51.27;100404.88;5058759;28;20158;-58
2023/07/15 02:22:34;;;;;;;2.88;2.20;;;;;;;22.35;51.54;100407.59;5055180;28;20036;-58
2023/07/15 02:25:00;;;;;;;4.70;2.28;;;;;;;22.35;51.26;100419.28;5054577;28;20387;-58
2023/07/15 02:27:25;;;;;;;4.60;2.00;;;;;;;22.35;51.15;100415.72;5054198;28;20021;-58
2023/07/15 02:29:51;;;;;;;3.22;2.10;;;;;;;22.34;51.41;100414.88;5066728;28;20031;-58
2023/07/15 02:32:39;;;;;;;4.28;2.53;;;;;;;22.36;51.64;100412.81;5059156;28;20116;-58
2023/07/15 02:35:08;;;;;;;2.38;1.85;;;;;;;22.34;51.37;100414.06;5058378;28;20032;-58
2023/07/15 02:37:35;;;;;;;3.85;1.77;;;;;;;22.33;51.18;100423.19;5066306;28;20036;-58
2023/07/15 02:40:01;;;;;;;4.10;2.20;;;;;;;22.32;51.35;100411.53;5064952;28;20091;-58
2023/07/15 02:42:26;;;;;;;4.07;2.10;;;;;;;22.33;51.19;100415.06;5065979;28;20021;-58
2023/07/15 02:44:52;;;;;;;3.25;1.80;;;;;;;22.32;51.01;100418.81;5060174;28;20040;-58
2023/07/15 02:47:17;;;;;;;5.22;2.15;;;;;;;22.32;51.15;100406.09;5061939;28;20039;-58
2023/07/15 02:49:43;;;;;;;3.88;2.10;;;;;;;22.32;51.01;100405.25;5061060;28;20043;-58
2023/07/15 02:52:08;;;;;;;4.68;2.15;;;;;;;22.32;51.47;100418.81;5061718;28;20478;-58
2023/07/15 02:54:33;;;;;;;2.75;1.88;;;;;;;22.32;51.07;100405.25;5068426;28;20108;-58
2023/07/15 02:56:59;;;;;;;3.78;2.13;;;;;;;22.33;50.93;100401.50;5069997;28;20060;-58
2023/07/15 02:59:24;;;;;;;5.38;2.08;;;;;;;22.32;50.93;100394.41;5058566;28;20119;-58
2023/07/15 03:01:49;;;;;;;2.58;2.10;;;;;;;22.31;50.80;100398.97;5044793;28;20029;-58
2023/07/15 03:04:15;;;;;;;3.65;2.35;;;;;;;22.31;50.91;100401.69;5069980;28;20032;-58
2023/07/15 03:06:41;;;;;;;5.80;2.00;;;;;;;22.31;50.86;100403.56;5065258;28;20505;-58
2023/07/15 03:09:07;;;;;;;2.20;1.73;;;;;;;22.31;51.23;100403.56;5061364;28;20036;-58
2023/07/15 03:11:32;;;;;;;2.83;2.05;;;;;;;22.31;51.21;100398.13;5065174;28;20028;-58
2023/07/15 03:13:57;;;;;;;3.13;1.92;;;;;;;22.29;51.08;100394.78;5061476;28;20025;-57
2023/07/15 03:16:23;;;;;;;5.50;2.35;;;;;;;22.30;50.75;100401.88;5062111;28;20078;-58
2023/07/15 03:18:48;;;;;;;4.32;1.95;;;;;;;22.30;51.23;100408.16;5058549;28;20085;-59
2023/07/15 03:21:14;;;;;;;2.17;1.80;;;;;;;22.29;51.20;100400.19;5061790;28;20016;-59
2023/07/15 03:23:39;;;;;;;3.78;2.05;;;;;;;22.29;51.11;100401.03;5065369;28;20031;-58
2023/07/15 03:26:05;;;;;;;4.20;1.90;;;;;;;22.28;50.71;100414.81;5063239;28;20047;-59
2023/07/15 03:28:30;;;;;;;4.72;2.08;;;;;;;22.27;50.58;100410.38;5057295;28;20045;-58
2023/07/15 03:30:56;;;;;;;2.88;2.08;;;;;;;22.26;50.74;100401.41;5067857;28;20037;-59
2023/07/15 03:33:21;;;;;;;2.05;1.83;;;;;;;22.27;51.26;100413.09;5063723;28;20033;-59
2023/07/15 03:35:47;;;;;;;6.55;2.30;;;;;;;22.28;50.70;100409.38;5057555;28;20494;-58
2023/07/15 03:38:12;;;;;;;2.83;2.17;;;;;;;22.28;51.16;100414.81;5060736;28;20449;-58
2023/07/15 03:40:37;;;;;;;4.30;2.40;;;;;;;22.28;51.21;100409.38;5057276;28;20387;-58
2023/07/15 03:43:03;;;;;;;4.40;2.10;;;;;;;22.28;50.65;100406.66;5066844;28;20033;-58
2023/07/15 03:45:30;;;;;;;2.20;1.98;;;;;;;22.26;50.95;100401.41;5060528;28;20363;-59
2023/07/15 03:47:55;;;;;;;2.95;1.63;;;;;;;22.25;50.78;100405.97;5063129;28;20020;-58
2023/07/15 03:50:20;;;;;;;4.72;2.45;;;;;;;22.26;51.10;100398.72;5060706;28;20055;-59
2023/07/15 03:52:46;;;;;;;3.60;1.70;;;;;;;22.24;51.23;100404.28;5062772;28;20084;-58
2023/07/15 03:55:11;;;;;;;4.68;2.30;;;;;;;22.24;50.66;100403.44;5066182;28;20041;-59
2023/07/15 03:57:37;;;;;;;2.53;1.98;;;;;;;22.24;50.72;100393.44;5068104;28;20029;-58
2023/07/15 04:00:07;;;;;;;3.55;2.15;;;;;;;22.23;51.04;100402.56;5061954;28;20028;-58
2023/07/15 04:02:32;;;;;;;4.80;2.15;;;;;;;22.24;50.97;100398.03;5064662;28;20029;-58
2023/07/15 04:04:57;;;;;;;4.40;2.30;;;;;;;22.24;50.62;100398.03;5064371;28;20028;-58
2023/07/15 04:07:23;;;;;;;3.70;2.03;;;;;;;22.24;51.02;100400.72;5068712;28;20033;-58
2023/07/15 04:09:48;;;;;;;5.13;2.60;;;;;;;22.23;50.76;100396.31;5065532;28;20085;-58
2023/07/15 04:12:14;;;;;;;4.25;2.28;;;;;;;22.23;50.83;100397.16;5065419;28;20043;-58
2023/07/15 04:14:39;;;;;;;2.83;1.90;;;;;;;22.22;50.72;100398.19;5056913;28;20108;-58
2023/07/15 04:17:04;;;;;;;4.25;2.08;;;;;;;22.22;50.72;100398.19;5064700;28;20475;-58
2023/07/15 04:19:30;;;;;;;4.75;2.35;;;;;;;22.22;50.73;100395.50;5064945;28;20082;-59
2023/07/15 04:21:55;;;;;;;4.85;1.98;;;;;;;22.21;50.82;100393.78;5060770;28;20027;-59
2023/07/15 04:24:20;;;;;;;5.45;2.25;;;;;;;22.21;51.01;100407.34;5061722;28;20083;-58
2023/07/15 04:26:46;;;;;;;3.75;2.30;;;;;;;22.21;50.70;100404.63;5069752;28;20040;-58
2023/07/15 04:29:11;;;;;;;2.67;1.88;;;;;;;22.20;51.11;100411.09;5064634;28;20028;-58
2023/07/15 04:31:37;;;;;;;3.90;2.00;;;;;;;22.20;51.17;100408.38;5064711;28;20028;-59
2023/07/15 04:34:02;;;;;;;3.97;2.20;;;;;;;22.18;50.70;100413.16;5044108;28;20525;-59
2023/07/15 04:36:28;;;;;;;2.58;2.33;;;;;;;22.20;50.85;100411.09;5062891;28;20032;-58
2023/07/15 04:38:53;;;;;;;3.83;2.33;;;;;;;22.20;51.42;100421.09;5064590;28;20112;-58
2023/07/15 04:41:19;;;;;;;5.55;2.55;;;;;;;22.19;51.15;100417.53;5059130;28;20040;-58
2023/07/15 04:43:44;;;;;;;3.38;2.20;;;;;;;22.20;51.30;100426.50;5052834;28;20113;-58
2023/07/15 04:46:11;;;;;;;4.70;2.20;;;;;;;22.20;51.01;100423.78;5064969;28;20064;-58
2023/07/15 04:48:36;;;;;;;3.25;2.08;;;;;;;22.19;51.03;100428.38;5060676;28;20025;-58
2023/07/15 04:51:02;;;;;;;3.95;2.30;;;;;;;22.19;51.02;100432.97;5062294;28;20116;-58
2023/07/15 04:53:27;;;;;;;4.40;2.05;;;;;;;22.19;51.57;100436.53;5063743;28;20020;-58
2023/07/15 04:55:53;;;;;;;2.47;1.98;;;;;;;22.18;51.74;100434.84;5065518;28;20036;-58
2023/07/15 04:58:19;;;;;;;3.20;1.92;;;;;;;22.19;51.34;100431.09;5068313;28;20024;-58
2023/07/15 05:00:50;;;;;;;3.53;2.08;;;;;;;22.18;51.61;100424.00;5064022;28;20028;-58
2023/07/15 05:03:15;;;;;;;;;;;;;;;22.28;51.63;100420.22;5057948;28;20094;-59
2023/07/15 05:05:41;;;;;;;4.57;2.23;;;;;;;22.21;51.43;100431.75;5059474;28;20066;-58
2023/07/15 05:08:14;;;;;;;5.15;1.98;;;;;;;22.19;51.62;100425.69;5060721;28;20290;-58
2023/07/15 05:10:40;;;;;;;4.80;2.10;;;;;;;22.18;51.69;100418.59;5059648;28;20040;-58
2023/07/15 05:13:09;;;;;;;3.78;2.30;;;;;;;22.17;51.91;100419.59;5064435;28;20028;-58
2023/07/15 05:15:38;;;;;;;2.83;2.40;;;;;;;22.17;51.82;100414.16;5060151;28;20078;-58
2023/07/15 05:18:04;;;;;;;8.50;2.90;;;;;;;22.19;52.16;100419.41;5058156;28;20032;-58
2023/07/15 05:20:31;;;;;;;2.83;1.98;;;;;;;22.18;51.97;100424.00;5064266;28;20029;-58
2023/07/15 05:22:57;;;;;;;5.43;2.22;;;;;;;22.18;52.24;100432.16;5061989;28;20025;-58
2023/07/15 05:25:23;;;;;;;2.30;2.05;;;;;;;22.18;52.16;100425.84;5062054;28;20078;-58
2023/07/15 05:27:48;;;;;;;3.35;2.45;;;;;;;22.18;52.34;100428.56;5064387;28;20039;-58
2023/07/15 05:30:14;;;;;;;3.25;2.20;;;;;;;22.18;52.22;100424.00;5066306;28;20387;-58
2023/07/15 05:32:39;;;;;;;3.97;2.10;;;;;;;22.17;51.80;100422.31;5065520;28;20078;-58
2023/07/15 05:35:05;;;;;;;3.58;2.00;;;;;;;22.18;51.88;100423.13;5062988;28;20067;-59
2023/07/15 05:37:30;;;;;;;6.55;2.53;;;;;;;22.19;51.89;100430.25;5061047;28;20079;-58
2023/07/15 05:39:56;;;;;;;2.45;2.00;;;;;;;22.18;51.86;100426.72;5063940;28;20029;-58
2023/07/15 05:42:21;;;;;;;4.28;2.53;;;;;;;22.19;52.21;100433.81;5056331;28;20029;-58
2023/07/15 05:44:47;;;;;;;4.65;2.28;;;;;;;22.18;52.26;100426.72;5060228;28;20093;-58
2023/07/15 05:47:12;;;;;;;3.72;2.20;;;;;;;22.19;52.34;100422.13;5063955;28;20367;-58
2023/07/15 05:49:38;;;;;;;3.80;2.08;;;;;;;22.19;52.28;100427.56;5059793;28;20040;-58
2023/07/15 05:52:03;;;;;;;2.47;2.00;;;;;;;22.20;52.82;100434.66;5059388;28;20081;-58
2023/07/15 05:54:29;;;;;;;3.35;1.90;;;;;;;22.19;52.40;100433.81;5063955;28;20505;-58
2023/07/15 05:56:54;;;;;;;7.05;2.70;;;;;;;22.20;52.94;100438.22;5060453;28;20028;-58
2023/07/15 05:59:20;;;;;;;3.25;2.40;;;;;;;22.19;53.13;100439.22;5056110;28;20101;-59
2023/07/15 06:01:46;;;;;;;5.85;2.25;;;;;;;22.20;53.26;100438.22;5067005;28;20028;-58
2023/07/15 06:04:11;;;;;;;3.95;2.40;;;;;;;22.21;52.76;100445.31;5059514;28;20126;-58
2023/07/15 06:06:37;;;;;;;2.65;2.20;;;;;;;22.21;52.89;100430.91;5059581;28;20032;-59
2023/07/15 06:09:02;;;;;;;4.40;2.17;;;;;;;22.21;52.87;100439.88;5049340;28;20076;-59
2023/07/15 06:11:27;;;;;;;4.60;2.20;;;;;;;22.22;53.39;100438.88;5067236;28;20021;-59
2023/07/15 06:13:53;;;;;;;4.18;2.00;;;;;;;22.22;53.43;100438.88;5065441;28;20483;-58
2023/07/15 06:16:18;;;;;;;3.95;2.38;;;;;;;22.23;53.04;100439.72;5065123;28;20415;-59
2023/07/15 06:18:44;;;;;;;3.45;2.05;;;;;;;22.24;53.33;100452.25;5065579;28;20118;-58
2023/07/15 06:21:09;;;;;;;3.58;1.98;;;;;;;22.25;53.70;100454.78;5065176;28;20040;-59
2023/07/15 06:23:34;;;;;;;8.32;2.20;;;;;;;22.24;53.55;100441.41;5061864;28;20107;-58
2023/07/15 06:26:00;;;;;;;3.90;2.05;;;;;;;22.24;53.81;100450.38;5067519;28;20117;-58
2023/07/15 06:28:25;;;;;;;2.83;2.10;;;;;;;22.25;53.43;100443.09;5066174;28;20471;-58
2023/07/15 06:31:03;;;;;;;2.60;2.20;;;;;;;22.27;53.64;100445.66;5065018;28;20064;-58
2023/07/15 06:33:29;;;;;;;3.45;2.13;;;;;;;22.27;53.15;100445.66;5063052;28;20362;-58
2023/07/15 06:35:55;;;;;;;1.98;1.83;;;;;;;22.27;53.49;100440.22;5059509;28;20090;-58
2023/07/15 06:38:22;;;;;;;2.10;1.90;;;;;;;22.28;53.39;100444.63;5071741;28;20055;-58
2023/07/15 06:40:47;;;;;;;2.85;2.03;;;;;;;22.27;53.73;100448.34;5069056;28;20024;-58
2023/07/15 06:43:12;;;;;;;4.43;1.98;;;;;;;22.28;53.88;100450.06;5066781;28;20040;-58
2023/07/15 06:45:38;;;;;;;3.00;1.88;;;;;;;22.28;53.77;100445.47;5062919;28;20359;-58
2023/07/15 06:48:03;;;;;;;2.65;1.70;;;;;;;22.30;53.44;100462.41;5065344;28;20039;-58
2023/07/15 06:50:29;;;;;;;3.47;1.70;;;;;;;22.31;53.77;100461.34;5063753;28;20067;-58
2023/07/15 06:52:54;;;;;;;3.42;1.83;;;;;;;22.32;53.71;100456.78;5052136;28;20090;-58
2023/07/15 06:55:21;;;;;;;4.28;2.03;;;;;;;22.32;53.32;100449.50;5063420;28;20029;-58
2023/07/15 06:57:47;;;;;;;2.65;1.95;;;;;;;22.31;53.45;100436.94;5065568;28;20413;-58
2023/07/15 07:00:13;;;;;;;1.98;1.67;;;;;;;22.32;53.93;100443.22;5053796;28;20033;-58
2023/07/15 07:02:38;;;;;;;4.28;1.73;;;;;;;22.32;53.86;100440.53;5062887;28;20028;-58
2023/07/15 07:05:04;;;;;;;2.63;1.77;;;;;;;22.34;54.05;100443.88;5058433;28;20372;-58
2023/07/15 07:07:29;;;;;;;1.70;1.60;;;;;;;22.34;53.51;100447.44;5054242;28;20436;-59
2023/07/15 07:09:54;;;;;;;2.90;1.70;;;;;;;22.35;53.72;100448.25;5039759;28;20025;-58
2023/07/15 07:12:22;;;;;;;2.25;1.90;;;;;;;22.36;53.60;100445.38;5061322;28;20037;-60
2023/07/15 07:14:47;;;;;;;3.15;1.70;;;;;;;22.37;53.84;100438.06;5058280;28;20049;-58
2023/07/15 07:17:13;;;;;;;1.77;1.52;;;;;;;22.36;54.20;100445.38;5062498;28;20047;-59
2023/07/15 07:19:38;;;;;;;3.78;1.70;;;;;;;22.38;53.67;100447.91;5055689;28;20046;-58
2023/07/15 07:22:04;;;;;;;3.55;1.75;;;;;;;22.38;53.72;100447.91;5064634;28;20032;-58
2023/07/15 07:24:29;;;;;;;2.80;1.88;;;;;;;22.38;53.95;100447.91;5056597;28;20391;-59
2023/07/15 07:26:55;;;;;;;3.72;1.90;;;;;;;22.39;53.97;100453.16;5060600;28;20063;-59
2023/07/15 07:29:20;;;;;;;3.75;1.90;;;;;;;22.40;53.89;100459.41;5062164;28;20091;-58
2023/07/15 07:31:45;;;;;;;1.60;1.38;;;;;;;22.40;54.29;100456.69;5055839;28;20036;-58
2023/07/15 07:34:11;;;;;;;3.17;1.48;;;;;;;22.40;54.62;100454.81;5054964;28;20056;-58
2023/07/15 07:36:36;;;;;;;2.25;1.70;;;;;;;22.41;54.59;100453.81;5059419;28;20499;-58
2023/07/15 07:39:01;;;;;;;4.93;1.52;;;;;;;22.43;54.70;100461.78;5058975;28;20063;-59
2023/07/15 07:41:27;;;;;;;4.00;1.73;;;;;;;22.44;54.79;100468.88;5058084;28;20024;-58
2023/07/15 07:43:52;;;;;;;2.55;1.60;;;;;;;22.44;54.52;100474.28;5054664;28;20068;-59
2023/07/15 07:46:17;;;;;;;3.20;1.80;;;;;;;22.45;54.90;100465.13;5057388;28;20032;-59
2023/07/15 07:48:43;;;;;;;5.07;1.63;;;;;;;22.45;54.73;100468.69;5060395;28;20024;-59
2023/07/15 07:51:08;;;;;;;5.18;1.50;;;;;;;22.45;55.35;100459.72;5055146;28;20526;-59
2023/07/15 07:53:34;;;;;;;6.10;1.77;;;;;;;22.47;55.48;100454.09;5056011;28;20028;-58
2023/07/15 07:55:59;;;;;;;1.70;1.50;;;;;;;22.46;55.68;100453.25;5056468;28;20032;-58
2023/07/15 07:58:25;;;;;;;2.97;1.60;;;;;;;22.47;55.00;100460.38;5057341;28;20029;-58
2023/07/15 08:00:50;;;;;;;4.18;2.03;;;;;;;22.48;54.99;100456.59;5046222;28;20085;-59
2023/07/15 08:03:16;;;;;;;2.90;1.52;;;;;;;22.48;54.95;100451.19;5059707;28;20025;-58
2023/07/15 08:05:46;;;;;;;2.40;1.45;;;;;;;22.48;55.49;100440.31;5061872;28;20028;-59
2023/07/15 08:08:13;;;;;;;2.13;1.58;;;;;;;22.50;55.24;100453.72;5053449;28;20037;-59
2023/07/15 08:10:40;;;;;;;1.92;1.70;;;;;;;22.49;55.53;100463.72;5052098;28;20028;-59
2023/07/15 08:13:07;;;;;;;2.20;1.38;;;;;;;22.49;55.29;100471.88;5058562;28;20016;-59
2023/07/15 08:15:36;;;;;;;4.15;1.80;;;;;;;22.51;55.53;100468.97;5060733;28;20102;-59
2023/07/15 08:18:02;;;;;;;2.25;1.50;;;;;;;22.51;55.90;100464.38;5055689;28;20525;-59
2023/07/15 08:20:29;;;;;;;2.83;1.40;;;;;;;22.52;56.67;100466.06;5057750;28;20033;-58
2023/07/15 08:22:55;;;;;;;1.77;1.23;;;;;;;22.53;56.24;100465.03;5054510;28;20056;-59
2023/07/15 08:25:21;;;;;;;4.53;1.48;;;;;;;22.53;56.43;100472.34;5055763;28;20067;-58
2023/07/15 08:27:46;;;;;;;6.50;1.23;;;;;;;22.53;56.40;100486.75;5058749;28;20470;-58
2023/07/15 08:30:12;;;;;;;4.78;1.50;;;;;;;22.53;56.26;100475.91;5053533;28;20596;-59
2023/07/15 08:32:37;;;;;;;5.18;1.58;;;;;;;22.53;56.06;100484.03;5059388;28;20379;-59
2023/07/15 08:35:05;;;;;;;1.70;1.50;;;;;;;22.53;56.43;100475.91;5055359;28;20114;-58
2023/07/15 08:37:30;;;;;;;1.42;1.20;;;;;;;22.55;56.04;100481.16;5053905;28;20036;-59
2023/07/15 08:39:56;;;;;;;1.40;1.30;;;;;;;22.55;56.38;100481.97;5055977;28;20537;-58
2023/07/15 08:42:23;;;;;;;2.60;1.30;;;;;;;22.55;56.32;100475.72;5060043;28;20048;-58
2023/07/15 08:44:49;;;;;;;1.33;1.20;;;;;;;22.55;56.94;100486.56;5056506;28;20021;-58
2023/07/15 08:47:19;;;;;;;2.50;1.20;;;;;;;22.54;56.73;100488.44;5059232;28;20518;-59
2023/07/15 08:49:45;;;;;;;1.50;1.13;;;;;;;22.55;56.37;100490.13;5062319;28;20127;-58
2023/07/15 08:52:12;;;;;;;1.85;1.10;;;;;;;22.57;56.59;100498.91;5064251;28;20040;-58
2023/07/15 08:54:39;;;;;;;2.65;1.30;;;;;;;22.57;57.35;100506.22;5060269;28;20387;-58
2023/07/15 08:57:06;;;;;;;6.53;1.77;;;;;;;22.57;57.50;100498.91;5070070;28;20040;-58
2023/07/15 08:59:32;;;;;;;2.65;1.30;;;;;;;22.58;57.40;100502.47;5068482;28;20041;-58
2023/07/15 09:01:59;;;;;;;2.70;1.42;;;;;;;22.58;56.86;100514.19;5058058;28;20025;-58
2023/07/15 09:04:25;;;;;;;5.53;1.77;;;;;;;22.59;57.23;100512.31;5060398;28;20505;-58
2023/07/15 09:06:52;;;;;;;4.30;1.50;;;;;;;22.58;57.58;100525.03;5055569;28;20029;-58
2023/07/15 09:09:17;;;;;;;4.72;1.58;;;;;;;22.58;57.34;100535.03;5060223;28;20033;-59
2023/07/15 09:11:43;;;;;;;2.67;1.20;;;;;;;22.58;57.73;100530.47;5059296;28;20051;-58
2023/07/15 09:14:15;;;;;;;2.08;1.40;;;;;;;22.58;57.39;100525.03;5040037;28;20042;-58
2023/07/15 09:16:41;;;;;;;2.08;1.40;;;;;;;22.59;57.40;100528.59;5053135;28;20039;-59
2023/07/15 09:19:07;;;;;;;6.53;1.70;;;;;;;22.58;57.94;100527.75;5058994;28;20457;-59
2023/07/15 09:21:33;;;;;;;4.78;1.50;;;;;;;22.59;57.74;100523.16;5059196;28;20033;-58
2023/07/15 09:24:00;;;;;;;2.95;1.55;;;;;;;22.58;57.70;100530.47;5058709;28;20124;-58
2023/07/15 09:26:26;;;;;;;5.97;1.45;;;;;;;22.59;57.61;100532.13;5063169;28;20024;-59
2023/07/15 09:28:53;;;;;;;4.13;1.40;;;;;;;22.60;57.64;100539.25;5060820;28;20391;-59
2023/07/15 09:31:26;;;;;;;4.80;1.50;;;;;;;22.61;57.68;100524.66;5063573;28;20033;-58
2023/07/15 09:33:51;;;;;;;4.28;1.27;;;;;;;22.62;57.32;100531.78;5062114;28;20036;-59
2023/07/15 09:36:32;;;;;;;3.53;1.80;;;;;;;22.63;57.18;100525.31;5055139;28;20033;-58
2023/07/15 09:39:11;;;;;;;3.03;1.35;;;;;;;22.64;57.17;100531.59;5063278;28;20356;-58
2023/07/15 09:41:36;;;;;;;2.88;1.35;;;;;;;22.63;57.26;100530.72;5051093;28;20017;-59
2023/07/15 09:44:02;;;;;;;5.65;2.08;;;;;;;22.63;57.57;100530.72;5058462;28;20033;-59
2023/07/15 09:46:30;;;;;;;3.55;1.50;;;;;;;22.63;57.55;100538.88;5062737;28;20032;-59
2023/07/15 09:48:57;;;;;;;4.57;1.50;;;;;;;22.63;57.57;100546.19;5065274;28;20103;-59
2023/07/15 09:51:24;;;;;;;2.50;1.45;;;;;;;22.63;57.23;100548.88;5064287;28;20073;-58
2023/07/15 09:53:56;;;;;;;2.42;1.25;;;;;;;22.64;57.25;100554.13;5064202;28;20036;-59
2023/07/15 09:56:26;;;;;;;2.53;1.60;;;;;;;22.64;57.23;100566.88;5055359;28;20372;-58
2023/07/15 09:58:54;;;;;;;3.92;1.50;;;;;;;22.64;57.12;100573.13;5054496;28;20036;-58
2023/07/15 10:01:31;;;;;;;2.80;1.60;;;;;;;22.64;57.04;100573.13;5061052;28;20463;-58
2023/07/15 10:04:09;;;;;;;3.00;1.60;;;;;;;22.65;57.24;100563.94;5062068;28;20025;-58
2023/07/15 10:06:35;;;;;;;2.85;1.70;;;;;;;22.65;57.63;100568.53;5058319;28;20043;-59
2023/07/15 10:09:02;;;;;;;2.65;1.70;;;;;;;22.65;57.53;100569.38;5058627;28;20025;-59
2023/07/15 10:11:29;;;;;;;3.70;1.67;;;;;;;22.65;57.66;100563.13;5062337;28;20371;-57
2023/07/15 10:13:55;;;;;;;2.88;1.60;;;;;;;22.65;57.95;100561.25;5065818;28;20134;-57
2023/07/15 10:16:20;;;;;;;3.45;1.60;;;;;;;22.65;57.45;100555.81;5061582;28;20040;-57
2023/07/15 10:18:46;;;;;;;3.92;2.00;;;;;;;22.66;57.84;100553.97;5060269;28;20036;-57
2023/07/15 10:21:14;;;;;;;3.45;1.50;;;;;;;22.65;57.20;100544.97;5058066;28;20103;-57
2023/07/15 10:23:40;;;;;;;2.03;1.52;;;;;;;22.65;57.76;100544.97;5063505;28;20029;-57
2023/07/15 10:26:08;;;;;;;4.00;1.67;;;;;;;22.65;57.91;100525.97;5068375;28;20051;-57
2023/07/15 10:28:37;;;;;;;3.10;1.52;;;;;;;22.64;57.40;100532.44;5046304;28;20116;-57
2023/07/15 10:31:06;;;;;;;2.70;1.30;;;;;;;22.67;57.58;100523.06;5066376;28;20033;-57
2023/07/15 10:33:31;;;;;;;5.15;1.98;;;;;;;22.67;57.54;100527.66;5059761;28;20112;-57
2023/07/15 10:35:57;;;;;;;2.65;1.75;;;;;;;22.68;57.64;100541.06;5059047;28;20162;-57
2023/07/15 10:38:31;;;;;;;2.80;2.00;;;;;;;22.70;58.06;100543.59;5055414;28;20490;-57
2023/07/15 10:41:10;;;;;;;3.55;2.30;;;;;;;22.71;57.71;100528.97;5055519;28;20021;-57
2023/07/15 10:43:41;;;;;;;3.10;1.98;;;;;;;22.69;57.73;100531.84;5060003;28;20028;-57
2023/07/15 10:46:08;;;;;;;3.22;1.63;;;;;;;22.71;58.52;100527.09;5058269;28;20033;-57
2023/07/15 10:48:35;;;;;;;3.33;1.85;;;;;;;22.71;58.37;100537.09;5061123;28;20150;-57
2023/07/15 10:51:06;;;;;;;2.00;1.60;;;;;;;22.72;58.08;100536.09;5061342;28;20491;-57
2023/07/15 10:53:32;;;;;;;4.63;1.70;;;;;;;22.73;58.38;100548.63;5060825;28;20021;-57
2023/07/15 10:56:15;;;;;;;2.05;1.50;;;;;;;22.74;57.86;100534.03;5058921;28;20032;-57
2023/07/15 10:58:41;;;;;;;4.00;1.83;;;;;;;22.72;58.09;100538.81;5054827;28;20032;-57
2023/07/15 11:01:08;;;;;;;1.95;1.50;;;;;;;22.73;57.87;100554.06;5056444;28;20024;-57
2023/07/15 11:03:36;;;;;;;1.67;1.35;;;;;;;22.73;58.58;100549.50;5056382;28;20162;-58
2023/07/15 11:06:02;;;;;;;4.55;1.70;;;;;;;22.72;58.25;100549.66;5054951;28;20037;-58
2023/07/15 11:08:29;;;;;;;1.98;1.65;;;;;;;22.74;58.17;100550.31;5057602;28;20509;-58
2023/07/15 11:11:02;;;;;;;3.30;1.70;;;;;;;22.74;58.42;100544.91;5055973;28;20040;-58
2023/07/15 11:13:28;;;;;;;2.28;1.63;;;;;;;22.74;58.95;100544.91;5057550;28;20418;-58
2023/07/15 11:15:55;;;;;;;2.38;1.70;;;;;;;22.75;58.62;100541.13;5051493;28;20056;-58
2023/07/15 11:18:22;;;;;;;4.50;1.90;;;;;;;22.74;58.91;100539.47;5060604;28;20047;-58
2023/07/15 11:20:49;;;;;;;2.78;1.65;;;;;;;22.75;58.68;100543.84;5054377;28;20490;-58